Iatt Lake, Louisiana
Current Conditions -  °F | °C
As of 5:55 AM on Friday 19 Dec 2014 (Local Time) from KIER Reporting Station
Moderate Rain Moderate Rain  
Wind Chill: 50°   Ceiling: 1500
Heat Index: 50°   Visibility: 4mi
Dew Point: 49°   Wind: 0mph
Humidity: 97%   Direction: NA
Pressure: 30.13"   Gusts: NA
Location:  31.8476°N, 92.7651°W
Report Text: KIER 191155Z AUTO 00000KT 4SM RA BKN015 BKN020 OVC027 10/09 A3013 RMK AO2 LTG DSNT SE AND W T00990094 10107 20099
Loading
Personal Weather Stations






























Interactive Weather Map New forecast layout! Learn more

10-Day Weather Forecast

Advertisements
Track Severe Weather on mobile